createdAt,value
2018-10-17T00:00:21.588Z,0
2018-10-17T00:01:21.198Z,0
2018-10-17T00:02:21.320Z,0
2018-10-17T00:03:21.076Z,0
2018-10-17T00:04:21.307Z,0
2018-10-17T00:05:21.534Z,0
2018-10-17T00:06:21.287Z,0
2018-10-17T00:07:21.757Z,0
2018-10-17T00:08:21.291Z,0
2018-10-17T00:09:21.021Z,0
2018-10-17T00:10:21.300Z,0
2018-10-17T00:11:21.501Z,0
2018-10-17T00:12:21.530Z,0
2018-10-17T00:13:21.452Z,0
2018-10-17T00:14:21.280Z,0
2018-10-17T00:15:21.282Z,0
2018-10-17T00:16:21.267Z,0
2018-10-17T00:17:21.089Z,0
2018-10-17T00:18:21.007Z,0
2018-10-17T00:19:21.847Z,0
2018-10-17T00:20:21.248Z,0
2018-10-17T00:21:20.981Z,0
2018-10-17T00:22:20.721Z,0
2018-10-17T00:23:21.519Z,0
2018-10-17T00:24:20.997Z,0
2018-10-17T00:25:21.122Z,0
2018-10-17T00:26:20.983Z,0
2018-10-17T00:27:20.963Z,0
2018-10-17T00:28:21.237Z,0
2018-10-17T00:29:21.334Z,0
2018-10-17T00:30:21.213Z,0
2018-10-17T00:31:21.284Z,0
2018-10-17T00:32:21.211Z,0
2018-10-17T00:33:21.718Z,0
2018-10-17T00:34:20.951Z,0
2018-10-17T00:35:21.746Z,0
2018-10-17T00:36:20.699Z,0
2018-10-17T00:37:21.532Z,0
2018-10-17T00:38:20.944Z,0
2018-10-17T00:39:21.204Z,0
2018-10-17T00:40:21.709Z,0
2018-10-17T00:41:22.134Z,0
2018-10-17T00:42:20.929Z,0
2018-10-17T00:43:21.496Z,0
2018-10-17T00:44:21.460Z,0
2018-10-17T00:45:20.915Z,0
2018-10-17T00:46:20.927Z,0
2018-10-17T00:47:21.455Z,0
2018-10-17T00:48:20.897Z,0
2018-10-17T00:49:21.460Z,0
2018-10-17T00:50:21.161Z,0
2018-10-17T00:51:21.155Z,0
2018-10-17T00:52:21.408Z,0
2018-10-17T00:53:21.275Z,0
2018-10-17T00:54:21.170Z,0
2018-10-17T00:55:21.900Z,0
2018-10-17T00:56:21.419Z,0
2018-10-17T00:57:20.875Z,0
2018-10-17T00:58:21.147Z,0
2018-10-17T00:59:21.759Z,0
2018-10-17T01:00:21.399Z,0
2018-10-17T01:01:21.855Z,0
2018-10-17T01:02:21.462Z,0
2018-10-17T01:03:24.906Z,0
2018-10-17T01:04:20.884Z,0
2018-10-17T01:05:21.477Z,0
2018-10-17T01:06:21.134Z,0
2018-10-17T01:07:21.052Z,0
2018-10-17T01:08:20.841Z,0
2018-10-17T01:09:21.080Z,0
2018-10-17T01:10:21.359Z,0
2018-10-17T01:11:21.210Z,0
2018-10-17T01:12:20.829Z,0
2018-10-17T01:13:21.551Z,0
2018-10-17T01:14:21.081Z,0
2018-10-17T01:15:20.809Z,0
2018-10-17T01:16:21.138Z,0
2018-10-17T01:17:21.485Z,0
2018-10-17T01:18:21.051Z,0
2018-10-17T01:19:20.975Z,0
2018-10-17T01:20:21.051Z,0
2018-10-17T01:21:20.559Z,0
2018-10-17T01:22:20.787Z,0
2018-10-17T01:23:21.060Z,0
2018-10-17T01:24:20.773Z,0
2018-10-17T01:25:20.940Z,0
2018-10-17T01:26:21.021Z,0
2018-10-17T01:27:21.339Z,0
2018-10-17T01:28:20.769Z,0
2018-10-17T01:29:21.391Z,0
2018-10-17T01:30:21.262Z,0
2018-10-17T01:31:21.522Z,0
2018-10-17T01:32:21.275Z,0
2018-10-17T01:33:21.254Z,0
2018-10-17T01:34:23.667Z,0
2018-10-17T01:35:21.628Z,0
2018-10-17T01:36:20.782Z,0
2018-10-17T01:37:20.665Z,0
2018-10-17T01:38:20.755Z,0
2018-10-17T01:39:20.992Z,0
2018-10-17T01:40:21.320Z,0
2018-10-17T01:41:21.199Z,0
2018-10-17T01:42:20.970Z,0
2018-10-17T01:43:21.543Z,0
2018-10-17T01:44:20.999Z,0
2018-10-17T01:45:21.232Z,0
2018-10-17T01:46:20.736Z,0
2018-10-17T01:47:21.255Z,0
2018-10-17T01:48:20.994Z,0
2018-10-17T01:49:20.774Z,0
2018-10-17T01:50:20.958Z,0
2018-10-17T01:51:20.685Z,0
2018-10-17T01:52:20.928Z,0
2018-10-17T01:53:21.269Z,0
2018-10-17T01:54:21.218Z,0
2018-10-17T01:55:21.020Z,0
2018-10-17T01:56:20.657Z,0
2018-10-17T01:57:20.647Z,0
2018-10-17T01:58:21.170Z,0
2018-10-17T01:59:21.375Z,0
2018-10-17T02:00:20.403Z,0
2018-10-17T02:01:21.125Z,0
2018-10-17T02:02:21.151Z,0
2018-10-17T02:03:21.158Z,0
2018-10-17T02:04:21.129Z,0
2018-10-17T02:05:21.167Z,0
2018-10-17T02:06:20.877Z,0
2018-10-17T02:07:21.492Z,0
2018-10-17T02:08:20.345Z,0
2018-10-17T02:09:20.616Z,0
2018-10-17T02:10:20.370Z,0
2018-10-17T02:11:21.164Z,0
2018-10-17T02:12:20.600Z,0
2018-10-17T02:13:21.138Z,0
2018-10-17T02:14:20.583Z,0
2018-10-17T02:15:20.572Z,0
2018-10-17T02:16:20.328Z,0
2018-10-17T02:17:20.323Z,0
2018-10-17T02:18:20.574Z,0
2018-10-17T02:19:21.359Z,0
2018-10-17T02:20:21.074Z,0
2018-10-17T02:21:20.817Z,0
2018-10-17T02:22:20.567Z,0
2018-10-17T02:23:21.485Z,0
2018-10-17T02:24:21.057Z,0
2018-10-17T02:25:21.030Z,0
2018-10-17T02:26:20.526Z,0
2018-10-17T02:27:20.529Z,0
2018-10-17T02:28:21.037Z,0
2018-10-17T02:29:20.958Z,0
2018-10-17T02:30:20.531Z,0
2018-10-17T02:31:21.484Z,0
2018-10-17T02:32:20.763Z,0
2018-10-17T02:33:20.750Z,0
2018-10-17T02:34:21.444Z,0
2018-10-17T02:35:21.248Z,0
2018-10-17T02:36:20.516Z,0
2018-10-17T02:37:21.202Z,0
2018-10-17T02:38:20.721Z,0
2018-10-17T02:39:21.079Z,0
2018-10-17T02:40:20.717Z,0
2018-10-17T02:41:21.880Z,0
2018-10-17T02:42:20.207Z,0
2018-10-17T02:43:21.554Z,0
2018-10-17T02:44:20.698Z,0
2018-10-17T02:45:20.167Z,0
2018-10-17T02:46:20.955Z,0
2018-10-17T02:47:21.352Z,0
2018-10-17T02:48:20.418Z,0
2018-10-17T02:49:21.136Z,0
2018-10-17T02:50:20.422Z,0
2018-10-17T02:51:20.428Z,0
2018-10-17T02:52:20.685Z,0
2018-10-17T02:53:21.572Z,0
2018-10-17T02:54:20.906Z,0
2018-10-17T02:55:20.711Z,0
2018-10-17T02:56:20.685Z,0
2018-10-17T02:57:20.641Z,0
2018-10-17T02:58:20.398Z,0
2018-10-17T02:59:21.540Z,0
2018-10-17T03:00:20.412Z,0
2018-10-17T03:01:20.261Z,0
2018-10-17T03:02:20.873Z,0
2018-10-17T03:03:20.608Z,0
2018-10-17T03:04:20.359Z,0
2018-10-17T03:05:21.102Z,0
2018-10-17T03:06:20.602Z,0
2018-10-17T03:07:21.596Z,0
2018-10-17T03:08:20.326Z,0
2018-10-17T03:09:20.335Z,0
2018-10-17T03:10:20.835Z,0
2018-10-17T03:11:21.177Z,0
2018-10-17T03:12:20.603Z,0
2018-10-17T03:13:21.454Z,0
2018-10-17T03:14:20.296Z,0
2018-10-17T03:15:20.574Z,0
2018-10-17T03:16:20.588Z,0
2018-10-17T03:17:21.539Z,0
2018-10-17T03:18:20.548Z,0
2018-10-17T03:19:21.603Z,0
2018-10-17T03:20:20.369Z,0
2018-10-17T03:21:20.781Z,0
2018-10-17T03:22:20.526Z,0
2018-10-17T03:23:21.278Z,0
2018-10-17T03:24:20.532Z,0
2018-10-17T03:25:21.032Z,0
2018-10-17T03:26:20.248Z,0
2018-10-17T03:27:20.778Z,0
2018-10-17T03:28:20.750Z,0
2018-10-17T03:29:21.313Z,0
2018-10-17T03:30:20.747Z,0
2018-10-17T03:31:21.639Z,0
2018-10-17T03:32:20.485Z,0
2018-10-17T03:33:20.487Z,0
2018-10-17T03:34:20.232Z,0
2018-10-17T03:35:20.315Z,0
2018-10-17T03:36:20.490Z,0
2018-10-17T03:37:20.973Z,0
2018-10-17T03:38:20.481Z,0
2018-10-17T03:39:19.947Z,0
2018-10-17T03:40:20.464Z,0
2018-10-17T03:41:21.356Z,0
2018-10-17T03:42:20.456Z,0
2018-10-17T03:43:21.060Z,0
2018-10-17T03:44:20.183Z,0
2018-10-17T03:45:20.195Z,0
2018-10-17T03:46:20.433Z,0
2018-10-17T03:47:21.555Z,0
2018-10-17T03:48:20.182Z,0
2018-10-17T03:49:20.671Z,0
2018-10-17T03:50:20.419Z,0
2018-10-17T03:51:20.400Z,0
2018-10-17T03:52:20.177Z,0
2018-10-17T03:53:21.470Z,0
2018-10-17T03:54:20.165Z,0
2018-10-17T03:55:21.407Z,0
2018-10-17T03:56:20.398Z,0
2018-10-17T03:57:20.113Z,0
2018-10-17T03:58:19.873Z,0
2018-10-17T03:59:21.584Z,0
2018-10-17T04:00:20.099Z,0
2018-10-17T04:01:20.896Z,0
2018-10-17T04:02:20.363Z,0
2018-10-17T04:03:20.787Z,0
2018-10-17T04:04:20.094Z,0
2018-10-17T04:05:21.309Z,0
2018-10-17T04:06:20.376Z,0
2018-10-17T04:07:21.291Z,0
2018-10-17T04:08:20.368Z,0
2018-10-17T04:09:20.064Z,0
2018-10-17T04:10:20.062Z,0
2018-10-17T04:11:20.290Z,0
2018-10-17T04:12:20.298Z,0
2018-10-17T04:13:20.475Z,0
2018-10-17T04:14:20.030Z,0
2018-10-17T04:15:20.303Z,0
2018-10-17T04:16:20.028Z,0
2018-10-17T04:17:21.145Z,0
2018-10-17T04:18:20.291Z,0
2018-10-17T04:19:20.462Z,0
2018-10-17T04:20:20.027Z,0
2018-10-17T04:21:20.323Z,0
2018-10-17T04:22:20.033Z,0
2018-10-17T04:23:20.747Z,0
2018-10-17T04:24:20.288Z,0
2018-10-17T04:25:20.875Z,0
2018-10-17T04:26:19.750Z,0
2018-10-17T04:27:20.243Z,0
2018-10-17T04:28:20.228Z,0
2018-10-17T04:29:20.580Z,0
2018-10-17T04:30:20.481Z,0
2018-10-17T04:31:20.609Z,0
2018-10-17T04:32:19.726Z,0
2018-10-17T04:33:20.225Z,0
2018-10-17T04:34:20.474Z,0
2018-10-17T04:35:21.270Z,0
2018-10-17T04:36:21.139Z,0
2018-10-17T04:37:20.965Z,0
2018-10-17T04:38:20.187Z,0
2018-10-17T04:39:19.969Z,0
2018-10-17T04:40:20.186Z,0
2018-10-17T04:41:20.733Z,0
2018-10-17T04:42:19.665Z,0
2018-10-17T04:43:21.008Z,0
2018-10-17T04:44:20.156Z,0
2018-10-17T04:45:19.656Z,0
2018-10-17T04:46:20.153Z,0
2018-10-17T04:47:20.997Z,0
2018-10-17T04:48:19.928Z,0
2018-10-17T04:49:21.058Z,0
2018-10-17T04:50:20.458Z,0
2018-10-17T04:51:20.398Z,0
2018-10-17T04:52:20.130Z,0
2018-10-17T04:53:21.125Z,0
2018-10-17T04:54:19.859Z,0
2018-10-17T04:55:21.022Z,0
2018-10-17T04:56:20.110Z,0
2018-10-17T04:57:20.410Z,0
2018-10-17T04:58:20.463Z,0
2018-10-17T04:59:20.426Z,0
2018-10-17T05:00:20.116Z,0
2018-10-17T05:01:20.355Z,0
2018-10-17T05:02:20.331Z,0
2018-10-17T05:03:20.084Z,0
2018-10-17T05:04:19.832Z,0
2018-10-17T05:05:20.957Z,0
2018-10-17T05:06:19.836Z,0
2018-10-17T05:07:20.830Z,0
2018-10-17T05:08:20.051Z,0
2018-10-17T05:09:20.059Z,0
2018-10-17T05:10:19.860Z,0
2018-10-17T05:11:20.931Z,0
2018-10-17T05:12:20.325Z,0
2018-10-17T05:13:20.345Z,0
2018-10-17T05:14:20.037Z,0
2018-10-17T05:15:20.864Z,0
2018-10-17T05:16:19.504Z,0
2018-10-17T05:17:20.385Z,0
2018-10-17T05:18:20.286Z,0
2018-10-17T05:19:20.700Z,0
2018-10-17T05:20:20.240Z,0
2018-10-17T05:21:19.781Z,0
2018-10-17T05:22:20.267Z,0
2018-10-17T05:23:20.440Z,0
2018-10-17T05:24:19.742Z,0
2018-10-17T05:25:20.524Z,0
2018-10-17T05:26:19.982Z,0
2018-10-17T05:27:19.797Z,0
2018-10-17T05:28:20.218Z,0
2018-10-17T05:29:20.793Z,0
2018-10-17T05:30:20.259Z,0
2018-10-17T05:31:20.385Z,0
2018-10-17T05:32:20.200Z,0
2018-10-17T05:33:19.678Z,0
2018-10-17T05:34:19.677Z,0
2018-10-17T05:35:20.353Z,0
2018-10-17T05:36:19.945Z,0
2018-10-17T05:37:20.890Z,0
2018-10-17T05:38:19.791Z,0
2018-10-17T05:39:19.669Z,0
2018-10-17T05:40:19.656Z,0
2018-10-17T05:41:19.913Z,0
2018-10-17T05:42:19.612Z,5
2018-10-17T05:43:20.659Z,5
2018-10-17T05:44:20.335Z,5
2018-10-17T05:45:19.359Z,5
2018-10-17T05:46:19.882Z,5
2018-10-17T05:47:20.732Z,5
2018-10-17T05:48:19.876Z,5
2018-10-17T05:49:20.401Z,10
2018-10-17T05:50:19.924Z,10
2018-10-17T05:51:19.121Z,10
2018-10-17T05:52:19.322Z,10
2018-10-17T05:53:20.141Z,10
2018-10-17T05:54:19.597Z,15
2018-10-17T05:55:20.871Z,15
2018-10-17T05:56:19.679Z,15
2018-10-17T05:57:20.085Z,15
2018-10-17T05:58:19.894Z,15
2018-10-17T05:59:19.789Z,20
2018-10-17T06:00:19.342Z,20
2018-10-17T06:01:20.837Z,20
2018-10-17T06:02:20.008Z,20
2018-10-17T06:03:19.819Z,25
2018-10-17T06:04:19.810Z,25
2018-10-17T06:05:20.488Z,25
2018-10-17T06:06:19.791Z,25
2018-10-17T06:07:20.092Z,30
2018-10-17T06:08:19.518Z,30
2018-10-17T06:09:19.494Z,30
2018-10-17T06:10:20.359Z,30
2018-10-17T06:11:20.386Z,35
2018-10-17T06:12:19.245Z,35
2018-10-17T06:13:20.067Z,35
2018-10-17T06:14:19.473Z,40
2018-10-17T06:15:19.729Z,40
2018-10-17T06:16:19.753Z,40
2018-10-17T06:17:20.077Z,40
2018-10-17T06:18:19.486Z,45
2018-10-17T06:19:20.077Z,45
2018-10-17T06:20:19.454Z,45
2018-10-17T06:21:19.450Z,50
2018-10-17T06:22:19.958Z,50
2018-10-17T06:23:20.120Z,50
2018-10-17T06:24:19.944Z,50
2018-10-17T06:25:20.383Z,55
2018-10-17T06:26:19.722Z,55
2018-10-17T06:27:19.941Z,55
2018-10-17T06:28:19.459Z,55
2018-10-17T06:29:20.165Z,60
2018-10-17T06:30:19.392Z,60
2018-10-17T06:31:20.281Z,60
2018-10-17T06:32:19.662Z,65
2018-10-17T06:33:19.643Z,65
2018-10-17T06:34:20.587Z,65
2018-10-17T06:35:20.329Z,65
2018-10-17T06:36:19.390Z,70
2018-10-17T06:37:20.018Z,70
2018-10-17T06:38:18.880Z,70
2018-10-17T06:39:19.909Z,70
2018-10-17T06:40:19.619Z,70
2018-10-17T06:41:20.074Z,75
2018-10-17T06:42:19.333Z,75
2018-10-17T06:43:20.179Z,75
2018-10-17T06:44:19.521Z,75
2018-10-17T06:45:19.313Z,80
2018-10-17T06:46:19.851Z,80
2018-10-17T06:47:20.598Z,80
2018-10-17T06:48:19.830Z,80
2018-10-17T06:49:20.129Z,80
2018-10-17T06:50:19.831Z,85
2018-10-17T06:51:20.409Z,85
2018-10-17T06:52:19.551Z,85
2018-10-17T06:53:19.186Z,85
2018-10-17T06:54:19.465Z,90
2018-10-17T06:55:19.991Z,90
2018-10-17T06:56:19.271Z,90
2018-10-17T06:57:19.529Z,90
2018-10-17T06:58:19.269Z,95
2018-10-17T06:59:19.590Z,95
2018-10-17T07:00:19.590Z,95
2018-10-17T07:01:19.979Z,95
2018-10-17T07:02:19.491Z,95
2018-10-17T07:03:19.479Z,95
2018-10-17T07:04:19.757Z,105
2018-10-17T07:05:20.237Z,115
2018-10-17T07:06:19.738Z,115
2018-10-17T07:07:20.540Z,125
2018-10-17T07:08:19.610Z,130
2018-10-17T07:09:19.815Z,130
2018-10-17T07:10:19.486Z,135
2018-10-17T07:11:19.808Z,135
2018-10-17T07:12:19.451Z,135
2018-10-17T07:13:20.331Z,135
2018-10-17T07:14:19.721Z,140
2018-10-17T07:15:20.179Z,140
2018-10-17T07:16:19.218Z,140
2018-10-17T07:17:20.190Z,145
2018-10-17T07:18:19.698Z,145
2018-10-17T07:19:20.343Z,145
2018-10-17T07:20:19.477Z,145
2018-10-17T07:21:19.451Z,145
2018-10-17T07:22:19.471Z,145
2018-10-17T07:23:20.024Z,145
2018-10-17T07:24:19.455Z,150
2018-10-17T07:25:19.805Z,150
2018-10-17T07:26:19.460Z,150
2018-10-17T07:27:19.481Z,150
2018-10-17T07:28:19.509Z,150
2018-10-17T07:29:20.306Z,155
2018-10-17T07:30:19.501Z,155
2018-10-17T07:31:21.217Z,155
2018-10-17T07:32:19.816Z,155
2018-10-17T07:33:19.459Z,160
2018-10-17T07:34:19.720Z,160
2018-10-17T07:35:19.797Z,160
2018-10-17T07:36:19.672Z,160
2018-10-17T07:37:19.224Z,160
2018-10-17T07:38:19.466Z,160
2018-10-17T07:39:19.741Z,165
2018-10-17T07:40:19.594Z,160
2018-10-17T07:41:19.478Z,160
2018-10-17T07:42:20.491Z,160
2018-10-17T07:43:19.473Z,160
2018-10-17T07:44:19.480Z,160
2018-10-17T07:45:19.351Z,160
2018-10-17T07:46:19.272Z,165
2018-10-17T07:47:19.775Z,165
2018-10-17T07:48:20.196Z,165
2018-10-17T07:49:19.229Z,165
2018-10-17T07:50:19.362Z,165
2018-10-17T07:51:19.225Z,165
2018-10-17T07:52:18.974Z,165
2018-10-17T07:53:19.836Z,165
2018-10-17T07:54:20.632Z,170
2018-10-17T07:55:19.518Z,170
2018-10-17T07:56:19.492Z,170
2018-10-17T07:57:19.546Z,170
2018-10-17T07:58:18.755Z,170
2018-10-17T07:59:19.264Z,170
2018-10-17T08:00:20.423Z,170
2018-10-17T08:01:19.518Z,170
2018-10-17T08:02:19.503Z,170
2018-10-17T08:03:19.538Z,170
2018-10-17T08:04:19.269Z,170
2018-10-17T08:05:19.393Z,170
2018-10-17T08:06:19.739Z,170
2018-10-17T08:07:19.284Z,175
2018-10-17T08:08:19.550Z,175
2018-10-17T08:09:19.611Z,175
2018-10-17T08:10:19.684Z,175
2018-10-17T08:11:19.293Z,175
2018-10-17T08:12:20.479Z,175
2018-10-17T08:13:19.073Z,175
2018-10-17T08:14:20.053Z,175
2018-10-17T08:15:19.459Z,175
2018-10-17T08:16:19.310Z,180
2018-10-17T08:17:19.289Z,180
2018-10-17T08:18:19.861Z,180
2018-10-17T08:19:19.558Z,180
2018-10-17T08:20:19.180Z,180
2018-10-17T08:21:19.760Z,180
2018-10-17T08:22:19.617Z,185
2018-10-17T08:23:19.550Z,185
2018-10-17T08:24:20.472Z,185
2018-10-17T08:25:19.673Z,185
2018-10-17T08:26:19.820Z,185
2018-10-17T08:27:19.945Z,185
2018-10-17T08:28:19.096Z,185
2018-10-17T08:29:19.840Z,190
2018-10-17T08:30:19.991Z,190
2018-10-17T08:31:19.838Z,190
2018-10-17T08:32:19.835Z,190
2018-10-17T08:33:19.560Z,190
2018-10-17T08:34:19.817Z,190
2018-10-17T08:35:20.088Z,190
2018-10-17T08:36:21.340Z,195
2018-10-17T08:37:20.192Z,190
2018-10-17T08:38:19.317Z,190
2018-10-17T08:39:19.821Z,195
2018-10-17T08:40:19.357Z,195
2018-10-17T08:41:20.113Z,195
2018-10-17T08:42:19.564Z,200
2018-10-17T08:43:19.553Z,195
2018-10-17T08:44:20.561Z,195
2018-10-17T08:45:20.038Z,195
2018-10-17T08:46:19.805Z,195
2018-10-17T08:47:19.541Z,195
2018-10-17T08:48:19.311Z,195
2018-10-17T08:49:19.038Z,200
2018-10-17T08:50:20.369Z,200
2018-10-17T08:51:19.425Z,195
2018-10-17T08:52:19.817Z,200
2018-10-17T08:53:19.532Z,200
2018-10-17T08:54:19.338Z,200
2018-10-17T08:55:19.532Z,200
2018-10-17T08:56:20.013Z,195
2018-10-17T08:57:19.542Z,195
2018-10-17T08:58:19.540Z,195
2018-10-17T08:59:19.822Z,195
2018-10-17T09:00:20.016Z,195
2018-10-17T09:01:19.587Z,195
2018-10-17T09:02:20.352Z,195
2018-10-17T09:03:19.525Z,195
2018-10-17T09:04:19.020Z,195
2018-10-17T09:05:19.850Z,195
2018-10-17T09:06:20.175Z,195
2018-10-17T09:07:19.305Z,195
2018-10-17T09:08:19.833Z,195
2018-10-17T09:09:19.319Z,195
2018-10-17T09:10:19.268Z,195
2018-10-17T09:11:19.797Z,195
2018-10-17T09:12:20.401Z,195
2018-10-17T09:13:19.652Z,195
2018-10-17T09:14:20.032Z,195
2018-10-17T09:15:19.992Z,195
2018-10-17T09:16:20.713Z,195
2018-10-17T09:17:19.543Z,195
2018-10-17T09:18:20.475Z,195
2018-10-17T09:19:20.194Z,195
2018-10-17T09:20:21.762Z,195
2018-10-17T09:21:20.852Z,195
2018-10-17T09:22:22.764Z,195
2018-10-17T09:23:19.005Z,195
2018-10-17T09:24:20.341Z,195
2018-10-17T09:25:19.788Z,195
2018-10-17T09:26:19.274Z,195
2018-10-17T09:27:19.518Z,195
2018-10-17T09:28:20.074Z,195
2018-10-17T09:29:19.283Z,195
2018-10-17T09:30:20.174Z,195
2018-10-17T09:31:19.265Z,195
2018-10-17T09:32:20.078Z,195
2018-10-17T09:33:19.522Z,195
2018-10-17T09:34:20.162Z,195
2018-10-17T09:35:19.704Z,195
2018-10-17T09:36:20.131Z,190
2018-10-17T09:37:19.801Z,190
2018-10-17T09:38:19.308Z,190
2018-10-17T09:39:19.274Z,190
2018-10-17T09:40:20.501Z,190
2018-10-17T09:41:19.515Z,190
2018-10-17T09:42:19.641Z,190
2018-10-17T09:43:19.907Z,190
2018-10-17T09:44:19.529Z,190
2018-10-17T09:45:19.564Z,190
2018-10-17T09:46:20.519Z,190
2018-10-17T09:47:19.504Z,190
2018-10-17T09:48:20.001Z,190
2018-10-17T09:49:19.274Z,190
2018-10-17T09:50:19.597Z,190
2018-10-17T09:51:19.537Z,190
2018-10-17T09:52:19.800Z,190
2018-10-17T09:53:19.413Z,190
2018-10-17T09:54:20.035Z,190
2018-10-17T09:55:19.588Z,190
2018-10-17T09:56:19.270Z,190
2018-10-17T09:57:19.067Z,190
2018-10-17T09:58:20.073Z,190
2018-10-17T09:59:19.512Z,190
2018-10-17T10:00:20.125Z,190
2018-10-17T10:01:19.535Z,190
2018-10-17T10:02:19.981Z,190
2018-10-17T10:03:19.539Z,190
2018-10-17T10:04:20.336Z,190
2018-10-17T10:05:19.806Z,190
2018-10-17T10:06:20.053Z,190
2018-10-17T10:07:19.530Z,190
2018-10-17T10:08:19.830Z,190
2018-10-17T10:09:19.551Z,190
2018-10-17T10:10:20.399Z,190
2018-10-17T10:11:19.421Z,190
2018-10-17T10:12:19.716Z,190
2018-10-17T10:13:19.290Z,190
2018-10-17T10:14:19.278Z,190
2018-10-17T10:15:19.314Z,190
2018-10-17T10:16:19.858Z,190
2018-10-17T10:17:20.123Z,190
2018-10-17T10:18:19.505Z,190
2018-10-17T10:19:19.565Z,190
2018-10-17T10:20:19.608Z,190
2018-10-17T10:21:19.298Z,190
2018-10-17T10:22:19.667Z,190
2018-10-17T10:23:20.519Z,190
2018-10-17T10:24:19.601Z,190
2018-10-17T10:25:20.318Z,185
2018-10-17T10:26:19.659Z,185
2018-10-17T10:27:19.632Z,185
2018-10-17T10:28:20.254Z,185
2018-10-17T10:29:19.564Z,185
2018-10-17T10:30:20.062Z,185
2018-10-17T10:31:19.820Z,185
2018-10-17T10:32:19.803Z,185
2018-10-17T10:33:19.776Z,185
2018-10-17T10:34:20.197Z,185
2018-10-17T10:35:19.909Z,185
2018-10-17T10:36:20.522Z,185
2018-10-17T10:37:19.287Z,185
2018-10-17T10:38:19.554Z,185
2018-10-17T10:39:19.542Z,185
2018-10-17T10:40:20.409Z,185
2018-10-17T10:41:19.571Z,185
2018-10-17T10:42:19.713Z,185
2018-10-17T10:43:19.584Z,185
2018-10-17T10:44:20.646Z,185
2018-10-17T10:45:20.359Z,185
2018-10-17T10:46:19.617Z,185
2018-10-17T10:47:19.584Z,185
2018-10-17T10:48:20.126Z,185
2018-10-17T10:49:20.490Z,185
2018-10-17T10:50:19.920Z,185
2018-10-17T10:51:20.572Z,185
2018-10-17T10:52:19.571Z,185
2018-10-17T10:53:19.578Z,185
2018-10-17T10:54:20.119Z,185
2018-10-17T10:55:19.594Z,185
2018-10-17T10:56:19.645Z,185
2018-10-17T10:57:20.075Z,185
2018-10-17T10:58:20.288Z,185
2018-10-17T10:59:20.325Z,190
2018-10-17T11:00:20.141Z,190
2018-10-17T11:01:19.341Z,185
2018-10-17T11:02:20.034Z,190
2018-10-17T11:03:20.106Z,185
2018-10-17T11:04:19.584Z,185
2018-10-17T11:05:19.713Z,185
2018-10-17T11:06:19.897Z,185
2018-10-17T11:07:19.603Z,185
2018-10-17T11:08:20.262Z,185
2018-10-17T11:09:19.886Z,185
2018-10-17T11:10:19.350Z,185
2018-10-17T11:11:20.621Z,185
2018-10-17T11:12:19.675Z,185
2018-10-17T11:13:19.400Z,185
2018-10-17T11:14:20.928Z,185
2018-10-17T11:15:19.139Z,180
2018-10-17T11:16:19.609Z,180
2018-10-17T11:17:19.779Z,180
2018-10-17T11:18:19.630Z,180
2018-10-17T11:19:19.871Z,180
2018-10-17T11:20:19.386Z,180
2018-10-17T11:21:19.369Z,180
2018-10-17T11:22:19.926Z,180
2018-10-17T11:23:20.303Z,180
2018-10-17T11:24:19.388Z,180
2018-10-17T11:25:19.931Z,180
2018-10-17T11:26:19.647Z,180
2018-10-17T11:27:20.166Z,180
2018-10-17T11:28:19.389Z,180
2018-10-17T11:29:19.885Z,180
2018-10-17T11:30:20.040Z,180
2018-10-17T11:31:19.511Z,175
2018-10-17T11:32:19.395Z,175
2018-10-17T11:33:20.610Z,175
2018-10-17T11:34:19.185Z,175
2018-10-17T11:35:20.289Z,175
2018-10-17T11:36:19.425Z,175
2018-10-17T11:37:20.106Z,170
2018-10-17T11:38:19.666Z,175
2018-10-17T11:39:20.438Z,170
2018-10-17T11:40:20.143Z,175
2018-10-17T11:41:20.541Z,175
2018-10-17T11:42:19.410Z,175
2018-10-17T11:43:19.671Z,175
2018-10-17T11:44:19.423Z,175
2018-10-17T11:45:20.673Z,175
2018-10-17T11:46:19.166Z,170
2018-10-17T11:47:20.036Z,170
2018-10-17T11:48:19.182Z,170
2018-10-17T11:49:19.965Z,170
2018-10-17T11:50:19.445Z,170
2018-10-17T11:51:20.600Z,170
2018-10-17T11:52:19.440Z,170
2018-10-17T11:53:20.600Z,170
2018-10-17T11:54:19.440Z,160
2018-10-17T11:55:19.782Z,170
2018-10-17T11:56:19.192Z,170
2018-10-17T11:57:19.491Z,175
2018-10-17T11:58:20.538Z,175
2018-10-17T11:59:20.307Z,155
2018-10-17T12:00:19.771Z,160
2018-10-17T12:01:20.003Z,160
2018-10-17T12:02:19.204Z,165
2018-10-17T12:03:20.634Z,170
2018-10-17T12:04:20.823Z,170
2018-10-17T12:05:20.523Z,175
2018-10-17T12:06:19.453Z,170
2018-10-17T12:07:19.729Z,175
2018-10-17T12:08:19.486Z,175
2018-10-17T12:09:20.617Z,175
2018-10-17T12:10:20.028Z,175
2018-10-17T12:11:20.061Z,170
2018-10-17T12:12:20.496Z,170
2018-10-17T12:13:19.756Z,170
2018-10-17T12:14:19.497Z,170
2018-10-17T12:15:20.490Z,170
2018-10-17T12:16:19.765Z,170
2018-10-17T12:17:19.761Z,165
2018-10-17T12:18:20.298Z,160
2018-10-17T12:19:20.290Z,160
2018-10-17T12:20:19.822Z,160
2018-10-17T12:21:20.632Z,155
2018-10-17T12:22:19.260Z,160
2018-10-17T12:23:20.090Z,170
2018-10-17T12:24:20.164Z,165
2018-10-17T12:25:19.319Z,160
2018-10-17T12:26:19.852Z,155
2018-10-17T12:27:19.648Z,155
2018-10-17T12:28:19.562Z,160
2018-10-17T12:29:19.523Z,160
2018-10-17T12:30:20.285Z,160
2018-10-17T12:31:20.058Z,160
2018-10-17T12:32:19.792Z,165
2018-10-17T12:33:20.289Z,160
2018-10-17T12:34:19.540Z,165
2018-10-17T12:35:20.425Z,165
2018-10-17T12:36:19.556Z,160
2018-10-17T12:37:19.550Z,165
2018-10-17T12:38:19.534Z,160
2018-10-17T12:39:20.568Z,160
2018-10-17T12:40:20.935Z,160
2018-10-17T12:41:20.423Z,160
2018-10-17T12:42:20.059Z,160
2018-10-17T12:43:19.846Z,155
2018-10-17T12:44:19.992Z,150
2018-10-17T12:45:19.874Z,155
2018-10-17T12:46:19.875Z,155
2018-10-17T12:47:20.118Z,155
2018-10-17T12:48:20.129Z,160
2018-10-17T12:49:19.959Z,160
2018-10-17T12:50:19.926Z,165
2018-10-17T12:51:19.834Z,170
2018-10-17T12:52:20.536Z,170
2018-10-17T12:53:20.461Z,170
2018-10-17T12:54:19.346Z,170
2018-10-17T12:55:19.831Z,155
2018-10-17T12:56:19.910Z,170
2018-10-17T12:57:19.639Z,170
2018-10-17T12:58:19.333Z,170
2018-10-17T12:59:20.446Z,170
2018-10-17T13:00:19.359Z,170
2018-10-17T13:01:20.336Z,170
2018-10-17T13:02:19.870Z,165
2018-10-17T13:03:19.871Z,160
2018-10-17T13:04:19.628Z,160
2018-10-17T13:05:19.874Z,150
2018-10-17T13:06:19.091Z,150
2018-10-17T13:07:20.024Z,150
2018-10-17T13:08:19.877Z,155
2018-10-17T13:09:20.142Z,155
2018-10-17T13:10:19.890Z,160
2018-10-17T13:11:20.171Z,165
2018-10-17T13:12:19.904Z,170
2018-10-17T13:13:20.487Z,170
2018-10-17T13:14:19.937Z,170
2018-10-17T13:15:19.165Z,165
2018-10-17T13:16:19.375Z,165
2018-10-17T13:17:20.578Z,165
2018-10-17T13:18:19.664Z,165
2018-10-17T13:19:20.000Z,165
2018-10-17T13:20:19.382Z,160
2018-10-17T13:21:20.131Z,160
2018-10-17T13:22:20.430Z,160
2018-10-17T13:23:20.360Z,155
2018-10-17T13:24:19.409Z,150
2018-10-17T13:25:20.294Z,145
2018-10-17T13:26:19.635Z,145
2018-10-17T13:27:19.947Z,140
2018-10-17T13:28:20.199Z,140
2018-10-17T13:29:20.828Z,140
2018-10-17T13:30:19.881Z,140
2018-10-17T13:31:20.442Z,145
2018-10-17T13:32:20.233Z,135
2018-10-17T13:33:20.213Z,135
2018-10-17T13:34:20.760Z,140
2018-10-17T13:35:20.860Z,135
2018-10-17T13:36:19.885Z,140
2018-10-17T13:37:19.701Z,140
2018-10-17T13:38:19.428Z,145
2018-10-17T13:39:19.707Z,135
2018-10-17T13:40:19.977Z,135
2018-10-17T13:41:20.449Z,140
2018-10-17T13:42:20.676Z,140
2018-10-17T13:43:20.810Z,140
2018-10-17T13:44:19.708Z,135
2018-10-17T13:45:19.704Z,135
2018-10-17T13:46:20.016Z,135
2018-10-17T13:47:20.581Z,125
2018-10-17T13:48:19.736Z,130
2018-10-17T13:49:21.621Z,135
2018-10-17T13:50:20.307Z,130
2018-10-17T13:51:19.989Z,125
2018-10-17T13:52:19.982Z,120
2018-10-17T13:53:21.115Z,125
2018-10-17T13:54:20.004Z,125
2018-10-17T13:55:20.927Z,125
2018-10-17T13:56:20.328Z,120
2018-10-17T13:57:19.228Z,125
2018-10-17T13:58:20.438Z,130
2018-10-17T13:59:20.421Z,130
2018-10-17T14:00:20.030Z,130
2018-10-17T14:01:20.518Z,125
2018-10-17T14:02:20.012Z,125
2018-10-17T14:03:20.822Z,120
2018-10-17T14:04:19.661Z,110
2018-10-17T14:05:20.052Z,110
2018-10-17T14:06:21.004Z,105
2018-10-17T14:07:20.831Z,110
2018-10-17T14:08:19.512Z,110
2018-10-17T14:09:21.077Z,110
2018-10-17T14:10:19.760Z,105
2018-10-17T14:11:19.595Z,105
2018-10-17T14:12:19.330Z,105